sensor_id;sensor_type;location;lat;lon;timestamp;temperature;humidity
11617;DHT22;5864;52.998;9.068;2023-02-13T00:01:52;7.90;99.90
11617;DHT22;5864;52.998;9.068;2023-02-13T00:04:20;6.40;99.90
11617;DHT22;5864;52.998;9.068;2023-02-13T00:06:49;7.90;99.90
11617;DHT22;5864;52.998;9.068;2023-02-13T00:09:16;7.90;99.90
11617;DHT22;5864;52.998;9.068;2023-02-13T00:11:44;7.90;99.90
11617;DHT22;5864;52.998;9.068;2023-02-13T00:14:11;7.90;99.90
11617;DHT22;5864;52.998;9.068;2023-02-13T00:16:38;7.90;99.90
11617;DHT22;5864;52.998;9.068;2023-02-13T00:19:06;7.90;99.90
11617;DHT22;5864;52.998;9.068;2023-02-13T00:21:33;7.90;99.90
11617;DHT22;5864;52.998;9.068;2023-02-13T00:24:02;7.90;99.90
11617;DHT22;5864;52.998;9.068;2023-02-13T00:26:30;7.80;99.90
11617;DHT22;5864;52.998;9.068;2023-02-13T00:28:57;7.80;99.90
11617;DHT22;5864;52.998;9.068;2023-02-13T00:31:25;7.80;99.90
11617;DHT22;5864;52.998;9.068;2023-02-13T00:33:52;7.70;99.90
11617;DHT22;5864;52.998;9.068;2023-02-13T00:36:21;7.80;99.90
11617;DHT22;5864;52.998;9.068;2023-02-13T00:38:50;7.80;99.90
11617;DHT22;5864;52.998;9.068;2023-02-13T00:41:19;7.60;99.90
11617;DHT22;5864;52.998;9.068;2023-02-13T00:43:47;7.50;99.90
11617;DHT22;5864;52.998;9.068;2023-02-13T00:46:15;7.60;99.90
11617;DHT22;5864;52.998;9.068;2023-02-13T00:48:43;7.60;99.90
11617;DHT22;5864;52.998;9.068;2023-02-13T00:51:11;7.60;99.90
11617;DHT22;5864;52.998;9.068;2023-02-13T00:53:39;7.60;99.90
11617;DHT22;5864;52.998;9.068;2023-02-13T00:56:06;7.60;99.90
11617;DHT22;5864;52.998;9.068;2023-02-13T00:58:35;7.70;99.90
11617;DHT22;5864;52.998;9.068;2023-02-13T01:01:04;7.70;99.90
11617;DHT22;5864;52.998;9.068;2023-02-13T01:03:32;7.70;99.90
11617;DHT22;5864;52.998;9.068;2023-02-13T01:05:59;7.70;99.90
11617;DHT22;5864;52.998;9.068;2023-02-13T01:08:27;7.70;99.90
11617;DHT22;5864;52.998;9.068;2023-02-13T01:10:54;7.70;99.90
11617;DHT22;5864;52.998;9.068;2023-02-13T01:13:22;7.50;99.90
11617;DHT22;5864;52.998;9.068;2023-02-13T01:15:51;7.50;99.90
11617;DHT22;5864;52.998;9.068;2023-02-13T01:18:19;7.50;99.90
11617;DHT22;5864;52.998;9.068;2023-02-13T01:20:55;7.40;99.90
11617;DHT22;5864;52.998;9.068;2023-02-13T01:23:23;7.50;99.90
11617;DHT22;5864;52.998;9.068;2023-02-13T01:25:50;7.60;99.90
11617;DHT22;5864;52.998;9.068;2023-02-13T01:28:18;7.50;99.90
11617;DHT22;5864;52.998;9.068;2023-02-13T01:30:53;7.50;99.90
11617;DHT22;5864;52.998;9.068;2023-02-13T01:33:21;7.40;99.90
11617;DHT22;5864;52.998;9.068;2023-02-13T01:35:49;7.40;99.90
11617;DHT22;5864;52.998;9.068;2023-02-13T01:38:16;7.40;99.90
11617;DHT22;5864;52.998;9.068;2023-02-13T01:40:45;7.40;99.90
11617;DHT22;5864;52.998;9.068;2023-02-13T01:43:13;7.30;99.90
11617;DHT22;5864;52.998;9.068;2023-02-13T01:45:41;7.40;99.90
11617;DHT22;5864;52.998;9.068;2023-02-13T01:48:15;7.30;99.90
11617;DHT22;5864;52.998;9.068;2023-02-13T01:50:46;7.30;99.90
11617;DHT22;5864;52.998;9.068;2023-02-13T01:53:19;7.40;99.90
11617;DHT22;5864;52.998;9.068;2023-02-13T01:55:51;7.40;99.90
11617;DHT22;5864;52.998;9.068;2023-02-13T01:58:22;7.40;99.90
11617;DHT22;5864;52.998;9.068;2023-02-13T02:00:51;7.40;99.90
11617;DHT22;5864;52.998;9.068;2023-02-13T02:03:23;7.40;99.90
11617;DHT22;5864;52.998;9.068;2023-02-13T02:05:54;7.50;99.90
11617;DHT22;5864;52.998;9.068;2023-02-13T02:08:23;7.50;99.90
11617;DHT22;5864;52.998;9.068;2023-02-13T02:10:51;7.50;99.90
11617;DHT22;5864;52.998;9.068;2023-02-13T02:13:20;7.50;99.90
11617;DHT22;5864;52.998;9.068;2023-02-13T02:15:48;7.50;99.90
11617;DHT22;5864;52.998;9.068;2023-02-13T02:18:17;7.50;99.90
11617;DHT22;5864;52.998;9.068;2023-02-13T02:24:10;7.60;99.90
11617;DHT22;5864;52.998;9.068;2023-02-13T02:33:31;7.60;99.90
11617;DHT22;5864;52.998;9.068;2023-02-13T02:36:11;7.50;99.90
11617;DHT22;5864;52.998;9.068;2023-02-13T02:38:50;7.50;99.90
11617;DHT22;5864;52.998;9.068;2023-02-13T02:41:28;7.50;99.90
11617;DHT22;5864;52.998;9.068;2023-02-13T02:44:28;7.50;99.90
11617;DHT22;5864;52.998;9.068;2023-02-13T02:47:07;7.60;99.90
11617;DHT22;5864;52.998;9.068;2023-02-13T02:50:02;7.60;99.90
11617;DHT22;5864;52.998;9.068;2023-02-13T02:52:45;7.50;99.90
11617;DHT22;5864;52.998;9.068;2023-02-13T02:55:25;7.50;99.90
11617;DHT22;5864;52.998;9.068;2023-02-13T02:58:01;7.50;99.90
11617;DHT22;5864;52.998;9.068;2023-02-13T03:00:50;7.40;99.90
11617;DHT22;5864;52.998;9.068;2023-02-13T03:03:36;7.50;99.90
11617;DHT22;5864;52.998;9.068;2023-02-13T03:06:26;7.50;99.90
11617;DHT22;5864;52.998;9.068;2023-02-13T03:08:59;7.50;99.90
11617;DHT22;5864;52.998;9.068;2023-02-13T03:11:48;7.60;99.90
11617;DHT22;5864;52.998;9.068;2023-02-13T03:14:34;7.50;99.90
11617;DHT22;5864;52.998;9.068;2023-02-13T03:17:02;7.60;99.90
11617;DHT22;5864;52.998;9.068;2023-02-13T03:19:56;7.60;99.90
11617;DHT22;5864;52.998;9.068;2023-02-13T03:22:59;7.60;99.90
11617;DHT22;5864;52.998;9.068;2023-02-13T03:25:31;7.50;99.90
11617;DHT22;5864;52.998;9.068;2023-02-13T03:28:11;7.50;99.90
11617;DHT22;5864;52.998;9.068;2023-02-13T03:31:05;7.60;99.90
11617;DHT22;5864;52.998;9.068;2023-02-13T03:33:47;7.60;99.90
11617;DHT22;5864;52.998;9.068;2023-02-13T03:36:29;7.60;99.90
11617;DHT22;5864;52.998;9.068;2023-02-13T03:39:22;7.50;99.90
11617;DHT22;5864;52.998;9.068;2023-02-13T03:41:57;7.50;99.90
11617;DHT22;5864;52.998;9.068;2023-02-13T03:44:30;7.50;99.90
11617;DHT22;5864;52.998;9.068;2023-02-13T03:47:00;7.40;99.90
11617;DHT22;5864;52.998;9.068;2023-02-13T03:49:30;7.40;99.90
11617;DHT22;5864;52.998;9.068;2023-02-13T03:52:22;7.50;99.90
11617;DHT22;5864;52.998;9.068;2023-02-13T03:54:55;7.40;99.90
11617;DHT22;5864;52.998;9.068;2023-02-13T03:57:43;7.40;99.90
11617;DHT22;5864;52.998;9.068;2023-02-13T04:00:34;7.50;99.90
11617;DHT22;5864;52.998;9.068;2023-02-13T04:03:07;7.40;99.90
11617;DHT22;5864;52.998;9.068;2023-02-13T04:05:40;7.40;99.90
11617;DHT22;5864;52.998;9.068;2023-02-13T04:08:09;7.50;99.90
11617;DHT22;5864;52.998;9.068;2023-02-13T04:10:46;7.40;99.90
11617;DHT22;5864;52.998;9.068;2023-02-13T04:13:19;7.50;99.90
11617;DHT22;5864;52.998;9.068;2023-02-13T04:15:54;7.50;99.90
11617;DHT22;5864;52.998;9.068;2023-02-13T04:18:24;7.50;99.90
11617;DHT22;5864;52.998;9.068;2023-02-13T04:20:53;7.50;99.90
11617;DHT22;5864;52.998;9.068;2023-02-13T04:23:20;7.40;99.90
11617;DHT22;5864;52.998;9.068;2023-02-13T04:25:51;7.50;99.90
11617;DHT22;5864;52.998;9.068;2023-02-13T04:28:20;7.50;99.90
11617;DHT22;5864;52.998;9.068;2023-02-13T04:30:47;7.40;99.90
11617;DHT22;5864;52.998;9.068;2023-02-13T04:33:15;7.40;99.90
11617;DHT22;5864;52.998;9.068;2023-02-13T04:35:43;7.40;99.90
11617;DHT22;5864;52.998;9.068;2023-02-13T04:38:10;7.30;99.90
11617;DHT22;5864;52.998;9.068;2023-02-13T04:40:37;7.30;99.90
11617;DHT22;5864;52.998;9.068;2023-02-13T04:43:06;7.30;99.90
11617;DHT22;5864;52.998;9.068;2023-02-13T04:45:34;7.30;99.90
11617;DHT22;5864;52.998;9.068;2023-02-13T04:48:01;7.40;99.90
11617;DHT22;5864;52.998;9.068;2023-02-13T04:50:29;7.40;99.90
11617;DHT22;5864;52.998;9.068;2023-02-13T04:52:57;7.40;99.90
11617;DHT22;5864;52.998;9.068;2023-02-13T04:55:26;7.40;99.90
11617;DHT22;5864;52.998;9.068;2023-02-13T04:57:54;7.40;99.90
11617;DHT22;5864;52.998;9.068;2023-02-13T05:00:25;7.40;99.90
11617;DHT22;5864;52.998;9.068;2023-02-13T05:02:53;7.40;99.90
11617;DHT22;5864;52.998;9.068;2023-02-13T05:05:21;7.40;99.90
11617;DHT22;5864;52.998;9.068;2023-02-13T05:07:48;7.40;99.90
11617;DHT22;5864;52.998;9.068;2023-02-13T05:10:16;7.40;99.90
11617;DHT22;5864;52.998;9.068;2023-02-13T05:12:43;7.40;99.90
11617;DHT22;5864;52.998;9.068;2023-02-13T05:15:10;7.50;99.90
11617;DHT22;5864;52.998;9.068;2023-02-13T05:17:42;7.40;99.90
11617;DHT22;5864;52.998;9.068;2023-02-13T05:20:11;7.40;99.90
11617;DHT22;5864;52.998;9.068;2023-02-13T05:22:43;7.40;99.90
11617;DHT22;5864;52.998;9.068;2023-02-13T05:25:28;7.30;99.90
11617;DHT22;5864;52.998;9.068;2023-02-13T05:27:55;7.40;99.90
11617;DHT22;5864;52.998;9.068;2023-02-13T05:30:23;7.40;99.90
11617;DHT22;5864;52.998;9.068;2023-02-13T05:32:51;7.40;99.90
11617;DHT22;5864;52.998;9.068;2023-02-13T05:35:20;7.30;99.90
11617;DHT22;5864;52.998;9.068;2023-02-13T05:37:48;7.40;99.90
11617;DHT22;5864;52.998;9.068;2023-02-13T05:40:15;7.40;99.90
11617;DHT22;5864;52.998;9.068;2023-02-13T05:42:43;7.40;99.90
11617;DHT22;5864;52.998;9.068;2023-02-13T05:45:10;7.50;99.90
11617;DHT22;5864;52.998;9.068;2023-02-13T05:47:38;7.50;99.90
11617;DHT22;5864;52.998;9.068;2023-02-13T05:50:08;7.50;99.90
11617;DHT22;5864;52.998;9.068;2023-02-13T05:52:35;7.40;99.90
11617;DHT22;5864;52.998;9.068;2023-02-13T05:55:03;7.40;99.90
11617;DHT22;5864;52.998;9.068;2023-02-13T05:57:30;7.50;99.90
11617;DHT22;5864;52.998;9.068;2023-02-13T05:59:58;7.50;99.90
11617;DHT22;5864;52.998;9.068;2023-02-13T06:02:25;7.50;99.90
11617;DHT22;5864;52.998;9.068;2023-02-13T06:04:52;7.50;99.90
11617;DHT22;5864;52.998;9.068;2023-02-13T06:07:21;7.50;99.90
11617;DHT22;5864;52.998;9.068;2023-02-13T06:09:49;7.50;99.90
11617;DHT22;5864;52.998;9.068;2023-02-13T06:12:17;7.50;99.90
11617;DHT22;5864;52.998;9.068;2023-02-13T06:14:44;7.50;99.90
11617;DHT22;5864;52.998;9.068;2023-02-13T06:17:11;7.50;99.90
11617;DHT22;5864;52.998;9.068;2023-02-13T06:19:39;7.50;99.90
11617;DHT22;5864;52.998;9.068;2023-02-13T06:22:06;7.50;99.90
11617;DHT22;5864;52.998;9.068;2023-02-13T06:24:35;7.50;99.90
11617;DHT22;5864;52.998;9.068;2023-02-13T06:27:03;7.50;99.90
11617;DHT22;5864;52.998;9.068;2023-02-13T06:29:30;7.50;99.90
11617;DHT22;5864;52.998;9.068;2023-02-13T06:31:58;7.40;99.90
11617;DHT22;5864;52.998;9.068;2023-02-13T06:34:25;7.40;99.90
11617;DHT22;5864;52.998;9.068;2023-02-13T06:36:53;7.40;99.90
11617;DHT22;5864;52.998;9.068;2023-02-13T06:39:20;7.50;99.90
11617;DHT22;5864;52.998;9.068;2023-02-13T06:41:49;7.50;99.90
11617;DHT22;5864;52.998;9.068;2023-02-13T06:44:16;7.50;99.90
11617;DHT22;5864;52.998;9.068;2023-02-13T06:46:44;7.60;99.90
11617;DHT22;5864;52.998;9.068;2023-02-13T06:49:11;7.60;99.90
11617;DHT22;5864;52.998;9.068;2023-02-13T06:51:38;7.60;99.90
11617;DHT22;5864;52.998;9.068;2023-02-13T06:54:06;7.60;99.90
11617;DHT22;5864;52.998;9.068;2023-02-13T06:56:33;7.60;99.90
11617;DHT22;5864;52.998;9.068;2023-02-13T06:59:02;7.60;99.90
11617;DHT22;5864;52.998;9.068;2023-02-13T07:01:30;7.60;99.90
11617;DHT22;5864;52.998;9.068;2023-02-13T07:03:57;7.60;99.90
11617;DHT22;5864;52.998;9.068;2023-02-13T07:06:25;7.60;99.90
11617;DHT22;5864;52.998;9.068;2023-02-13T07:08:53;7.60;99.90
11617;DHT22;5864;52.998;9.068;2023-02-13T07:11:23;7.60;99.90
11617;DHT22;5864;52.998;9.068;2023-02-13T07:13:50;7.70;99.90
11617;DHT22;5864;52.998;9.068;2023-02-13T07:16:20;7.60;99.90
11617;DHT22;5864;52.998;9.068;2023-02-13T07:18:47;7.60;99.90
11617;DHT22;5864;52.998;9.068;2023-02-13T07:21:14;7.70;99.90
11617;DHT22;5864;52.998;9.068;2023-02-13T07:23:42;7.60;99.90
11617;DHT22;5864;52.998;9.068;2023-02-13T07:26:09;7.60;99.90
11617;DHT22;5864;52.998;9.068;2023-02-13T07:28:37;7.60;99.90
11617;DHT22;5864;52.998;9.068;2023-02-13T07:31:05;7.60;99.90
11617;DHT22;5864;52.998;9.068;2023-02-13T07:33:34;7.60;99.90
11617;DHT22;5864;52.998;9.068;2023-02-13T07:36:02;7.60;99.90
11617;DHT22;5864;52.998;9.068;2023-02-13T07:38:31;7.60;99.90
11617;DHT22;5864;52.998;9.068;2023-02-13T07:41:00;7.60;99.90
11617;DHT22;5864;52.998;9.068;2023-02-13T07:43:27;7.60;99.90
11617;DHT22;5864;52.998;9.068;2023-02-13T07:45:57;7.60;99.90
11617;DHT22;5864;52.998;9.068;2023-02-13T07:48:25;7.60;99.90
11617;DHT22;5864;52.998;9.068;2023-02-13T07:50:58;7.60;99.90
11617;DHT22;5864;52.998;9.068;2023-02-13T07:53:25;7.70;99.90
11617;DHT22;5864;52.998;9.068;2023-02-13T07:55:53;7.70;99.90
11617;DHT22;5864;52.998;9.068;2023-02-13T07:58:21;7.70;99.90
11617;DHT22;5864;52.998;9.068;2023-02-13T08:00:48;7.70;99.90
11617;DHT22;5864;52.998;9.068;2023-02-13T08:03:16;7.70;99.90
11617;DHT22;5864;52.998;9.068;2023-02-13T08:05:46;7.70;99.90
11617;DHT22;5864;52.998;9.068;2023-02-13T08:08:16;7.70;99.90
11617;DHT22;5864;52.998;9.068;2023-02-13T08:10:43;7.70;99.90
11617;DHT22;5864;52.998;9.068;2023-02-13T08:13:28;7.80;99.90
11617;DHT22;5864;52.998;9.068;2023-02-13T08:15:55;7.70;99.90
11617;DHT22;5864;52.998;9.068;2023-02-13T08:18:23;7.70;99.90
11617;DHT22;5864;52.998;9.068;2023-02-13T08:20:50;7.60;99.90
11617;DHT22;5864;52.998;9.068;2023-02-13T08:23:19;7.60;99.90
11617;DHT22;5864;52.998;9.068;2023-02-13T08:25:46;7.60;99.90
11617;DHT22;5864;52.998;9.068;2023-02-13T08:28:15;7.70;99.90
11617;DHT22;5864;52.998;9.068;2023-02-13T08:30:42;7.70;99.90
11617;DHT22;5864;52.998;9.068;2023-02-13T08:33:10;6.00;99.90
11617;DHT22;5864;52.998;9.068;2023-02-13T08:35:37;7.70;99.90
11617;DHT22;5864;52.998;9.068;2023-02-13T08:38:05;7.60;99.90
11617;DHT22;5864;52.998;9.068;2023-02-13T08:40:33;7.70;99.90
11617;DHT22;5864;52.998;9.068;2023-02-13T08:43:01;7.60;99.90
11617;DHT22;5864;52.998;9.068;2023-02-13T08:45:30;7.60;99.90
11617;DHT22;5864;52.998;9.068;2023-02-13T08:47:58;6.40;99.90
11617;DHT22;5864;52.998;9.068;2023-02-13T08:50:26;7.70;99.90
11617;DHT22;5864;52.998;9.068;2023-02-13T08:52:54;7.70;99.90
11617;DHT22;5864;52.998;9.068;2023-02-13T08:55:22;7.60;99.90
11617;DHT22;5864;52.998;9.068;2023-02-13T08:57:50;7.60;99.90
11617;DHT22;5864;52.998;9.068;2023-02-13T09:00:19;7.60;99.90
11617;DHT22;5864;52.998;9.068;2023-02-13T09:02:46;7.70;99.90
11617;DHT22;5864;52.998;9.068;2023-02-13T09:05:14;7.70;99.90
11617;DHT22;5864;52.998;9.068;2023-02-13T09:07:41;7.70;99.90
11617;DHT22;5864;52.998;9.068;2023-02-13T09:10:09;7.80;99.90
11617;DHT22;5864;52.998;9.068;2023-02-13T09:12:37;7.80;99.90
11617;DHT22;5864;52.998;9.068;2023-02-13T09:15:06;7.80;99.90
11617;DHT22;5864;52.998;9.068;2023-02-13T09:17:34;7.80;99.90
11617;DHT22;5864;52.998;9.068;2023-02-13T09:20:01;7.90;99.90
11617;DHT22;5864;52.998;9.068;2023-02-13T09:22:28;7.90;99.90
11617;DHT22;5864;52.998;9.068;2023-02-13T09:24:56;7.90;99.90
11617;DHT22;5864;52.998;9.068;2023-02-13T09:27:26;8.00;99.90
11617;DHT22;5864;52.998;9.068;2023-02-13T09:29:53;8.00;99.90
11617;DHT22;5864;52.998;9.068;2023-02-13T09:32:22;8.10;99.90
11617;DHT22;5864;52.998;9.068;2023-02-13T09:34:49;8.10;99.90
11617;DHT22;5864;52.998;9.068;2023-02-13T09:37:17;8.10;99.90
11617;DHT22;5864;52.998;9.068;2023-02-13T09:39:44;8.10;99.90
11617;DHT22;5864;52.998;9.068;2023-02-13T09:42:18;8.20;99.90
11617;DHT22;5864;52.998;9.068;2023-02-13T09:44:49;8.20;99.90
11617;DHT22;5864;52.998;9.068;2023-02-13T09:47:26;8.20;99.90
11617;DHT22;5864;52.998;9.068;2023-02-13T09:49:59;8.20;99.90
11617;DHT22;5864;52.998;9.068;2023-02-13T09:52:32;8.40;99.90
11617;DHT22;5864;52.998;9.068;2023-02-13T09:55:00;8.40;99.90
11617;DHT22;5864;52.998;9.068;2023-02-13T09:57:32;8.30;99.90
11617;DHT22;5864;52.998;9.068;2023-02-13T10:00:05;8.40;99.90
11617;DHT22;5864;52.998;9.068;2023-02-13T10:02:59;8.40;99.90
11617;DHT22;5864;52.998;9.068;2023-02-13T10:05:47;8.50;99.90
11617;DHT22;5864;52.998;9.068;2023-02-13T10:08:29;8.50;99.90
11617;DHT22;5864;52.998;9.068;2023-02-13T10:11:05;8.50;99.90
11617;DHT22;5864;52.998;9.068;2023-02-13T10:13:49;8.50;99.90
11617;DHT22;5864;52.998;9.068;2023-02-13T10:16:22;8.50;99.90
11617;DHT22;5864;52.998;9.068;2023-02-13T10:18:54;8.50;99.90
11617;DHT22;5864;52.998;9.068;2023-02-13T10:21:27;8.60;99.90
11617;DHT22;5864;52.998;9.068;2023-02-13T10:23:58;8.50;99.90
11617;DHT22;5864;52.998;9.068;2023-02-13T10:26:30;8.60;99.90
11617;DHT22;5864;52.998;9.068;2023-02-13T10:29:13;8.50;99.90
11617;DHT22;5864;52.998;9.068;2023-02-13T10:32:02;8.60;99.90
11617;DHT22;5864;52.998;9.068;2023-02-13T10:34:36;8.50;99.90
11617;DHT22;5864;52.998;9.068;2023-02-13T10:37:10;8.60;99.90
11617;DHT22;5864;52.998;9.068;2023-02-13T10:39:40;8.70;99.90
11617;DHT22;5864;52.998;9.068;2023-02-13T10:42:17;8.70;99.90
11617;DHT22;5864;52.998;9.068;2023-02-13T10:45:00;8.70;99.90
11617;DHT22;5864;52.998;9.068;2023-02-13T10:50:24;8.80;99.90
11617;DHT22;5864;52.998;9.068;2023-02-13T10:53:06;8.80;99.90
11617;DHT22;5864;52.998;9.068;2023-02-13T10:55:54;8.80;99.90
11617;DHT22;5864;52.998;9.068;2023-02-13T10:58:30;8.80;99.90
11617;DHT22;5864;52.998;9.068;2023-02-13T11:01:06;8.80;99.90
11617;DHT22;5864;52.998;9.068;2023-02-13T11:03:36;8.90;99.90
11617;DHT22;5864;52.998;9.068;2023-02-13T11:06:10;9.00;99.90
11617;DHT22;5864;52.998;9.068;2023-02-13T11:08:40;9.10;99.90
11617;DHT22;5864;52.998;9.068;2023-02-13T11:11:27;9.00;99.90
11617;DHT22;5864;52.998;9.068;2023-02-13T11:14:11;9.00;99.90
11617;DHT22;5864;52.998;9.068;2023-02-13T11:16:53;9.00;99.90
11617;DHT22;5864;52.998;9.068;2023-02-13T11:19:24;8.90;99.90
11617;DHT22;5864;52.998;9.068;2023-02-13T11:21:58;8.80;99.90
11617;DHT22;5864;52.998;9.068;2023-02-13T11:24:29;8.70;99.90
11617;DHT22;5864;52.998;9.068;2023-02-13T11:27:03;8.70;99.90
11617;DHT22;5864;52.998;9.068;2023-02-13T11:29:35;8.70;99.90
11617;DHT22;5864;52.998;9.068;2023-02-13T11:32:09;8.10;99.90
11617;DHT22;5864;52.998;9.068;2023-02-13T11:34:43;8.70;99.90
11617;DHT22;5864;52.998;9.068;2023-02-13T11:37:22;8.80;99.90
11617;DHT22;5864;52.998;9.068;2023-02-13T11:39:51;8.80;99.90
11617;DHT22;5864;52.998;9.068;2023-02-13T11:42:23;8.80;99.90
11617;DHT22;5864;52.998;9.068;2023-02-13T11:44:54;8.80;99.90
11617;DHT22;5864;52.998;9.068;2023-02-13T11:47:37;8.90;99.90
11617;DHT22;5864;52.998;9.068;2023-02-13T11:50:18;9.00;99.90
11617;DHT22;5864;52.998;9.068;2023-02-13T11:52:55;9.00;99.90
11617;DHT22;5864;52.998;9.068;2023-02-13T11:55:26;9.00;99.90
11617;DHT22;5864;52.998;9.068;2023-02-13T11:57:58;9.00;99.90
11617;DHT22;5864;52.998;9.068;2023-02-13T12:00:30;9.10;99.90
11617;DHT22;5864;52.998;9.068;2023-02-13T12:03:23;9.10;99.90
11617;DHT22;5864;52.998;9.068;2023-02-13T12:06:03;9.10;99.90
11617;DHT22;5864;52.998;9.068;2023-02-13T12:08:34;9.20;99.90
11617;DHT22;5864;52.998;9.068;2023-02-13T12:11:05;9.20;99.90
11617;DHT22;5864;52.998;9.068;2023-02-13T12:13:37;9.30;99.90
11617;DHT22;5864;52.998;9.068;2023-02-13T12:16:10;9.30;99.90
11617;DHT22;5864;52.998;9.068;2023-02-13T12:18:44;9.30;99.90
11617;DHT22;5864;52.998;9.068;2023-02-13T12:21:22;9.30;99.90
11617;DHT22;5864;52.998;9.068;2023-02-13T12:23:59;9.30;99.90
11617;DHT22;5864;52.998;9.068;2023-02-13T12:26:32;9.20;99.90
11617;DHT22;5864;52.998;9.068;2023-02-13T12:29:17;9.20;99.90
11617;DHT22;5864;52.998;9.068;2023-02-13T12:31:58;9.30;99.90
11617;DHT22;5864;52.998;9.068;2023-02-13T12:37:56;9.20;99.90
11617;DHT22;5864;52.998;9.068;2023-02-13T12:40:39;9.30;99.90
11617;DHT22;5864;52.998;9.068;2023-02-13T12:43:27;9.30;99.90
11617;DHT22;5864;52.998;9.068;2023-02-13T12:46:02;9.30;99.90
11617;DHT22;5864;52.998;9.068;2023-02-13T12:48:37;9.30;99.90
11617;DHT22;5864;52.998;9.068;2023-02-13T12:51:19;9.30;99.90
11617;DHT22;5864;52.998;9.068;2023-02-13T12:54:17;9.10;99.90
11617;DHT22;5864;52.998;9.068;2023-02-13T12:57:22;9.10;99.90
11617;DHT22;5864;52.998;9.068;2023-02-13T13:03:20;9.10;99.90
11617;DHT22;5864;52.998;9.068;2023-02-13T13:06:01;9.10;99.90
11617;DHT22;5864;52.998;9.068;2023-02-13T13:14:20;9.30;99.90
11617;DHT22;5864;52.998;9.068;2023-02-13T13:16:54;9.20;99.90
11617;DHT22;5864;52.998;9.068;2023-02-13T13:19:31;9.20;99.90
11617;DHT22;5864;52.998;9.068;2023-02-13T13:22:04;9.30;99.90
11617;DHT22;5864;52.998;9.068;2023-02-13T13:24:46;9.30;99.90
11617;DHT22;5864;52.998;9.068;2023-02-13T13:27:21;9.20;99.90
11617;DHT22;5864;52.998;9.068;2023-02-13T13:29:54;9.30;99.90
11617;DHT22;5864;52.998;9.068;2023-02-13T13:32:24;9.40;99.90
11617;DHT22;5864;52.998;9.068;2023-02-13T13:34:53;9.40;99.90
11617;DHT22;5864;52.998;9.068;2023-02-13T13:37:28;9.40;99.90
11617;DHT22;5864;52.998;9.068;2023-02-13T13:40:00;9.40;99.90
11617;DHT22;5864;52.998;9.068;2023-02-13T13:42:34;9.40;99.90
11617;DHT22;5864;52.998;9.068;2023-02-13T13:45:28;9.50;99.90
11617;DHT22;5864;52.998;9.068;2023-02-13T13:48:14;9.60;99.90
11617;DHT22;5864;52.998;9.068;2023-02-13T13:50:44;9.60;99.90
11617;DHT22;5864;52.998;9.068;2023-02-13T13:53:13;9.60;99.90
11617;DHT22;5864;52.998;9.068;2023-02-13T13:56:02;9.60;99.90
11617;DHT22;5864;52.998;9.068;2023-02-13T13:58:37;9.50;99.90
11617;DHT22;5864;52.998;9.068;2023-02-13T14:01:24;9.50;99.90
11617;DHT22;5864;52.998;9.068;2023-02-13T14:03:53;9.50;99.90
11617;DHT22;5864;52.998;9.068;2023-02-13T14:06:22;9.50;99.90
11617;DHT22;5864;52.998;9.068;2023-02-13T14:08:56;9.40;99.90
11617;DHT22;5864;52.998;9.068;2023-02-13T14:11:30;9.60;99.90
11617;DHT22;5864;52.998;9.068;2023-02-13T14:13:59;9.60;99.90
11617;DHT22;5864;52.998;9.068;2023-02-13T14:16:39;9.60;99.90
11617;DHT22;5864;52.998;9.068;2023-02-13T14:19:24;9.60;99.90
11617;DHT22;5864;52.998;9.068;2023-02-13T14:21:53;9.60;99.90
11617;DHT22;5864;52.998;9.068;2023-02-13T14:24:23;9.60;99.90
11617;DHT22;5864;52.998;9.068;2023-02-13T14:26:52;9.60;99.90
11617;DHT22;5864;52.998;9.068;2023-02-13T14:29:30;9.70;99.90
11617;DHT22;5864;52.998;9.068;2023-02-13T14:32:06;9.60;99.90
11617;DHT22;5864;52.998;9.068;2023-02-13T14:34:36;9.60;99.90
11617;DHT22;5864;52.998;9.068;2023-02-13T14:37:14;9.50;99.90
11617;DHT22;5864;52.998;9.068;2023-02-13T14:43:00;9.40;99.90
11617;DHT22;5864;52.998;9.068;2023-02-13T14:45:31;9.30;99.90
11617;DHT22;5864;52.998;9.068;2023-02-13T14:48:05;9.40;99.90
11617;DHT22;5864;52.998;9.068;2023-02-13T14:50:45;9.30;99.90
11617;DHT22;5864;52.998;9.068;2023-02-13T14:53:20;9.40;99.90
11617;DHT22;5864;52.998;9.068;2023-02-13T14:55:56;9.30;99.90
11617;DHT22;5864;52.998;9.068;2023-02-13T14:58:27;9.30;99.90
11617;DHT22;5864;52.998;9.068;2023-02-13T15:00:58;9.30;99.90
11617;DHT22;5864;52.998;9.068;2023-02-13T15:03:33;9.30;99.90
11617;DHT22;5864;52.998;9.068;2023-02-13T15:06:06;9.30;99.90
11617;DHT22;5864;52.998;9.068;2023-02-13T15:08:44;9.30;99.90
11617;DHT22;5864;52.998;9.068;2023-02-13T15:11:31;9.30;99.90
11617;DHT22;5864;52.998;9.068;2023-02-13T15:14:22;9.30;99.90
11617;DHT22;5864;52.998;9.068;2023-02-13T15:16:53;9.30;99.90
11617;DHT22;5864;52.998;9.068;2023-02-13T15:19:24;9.20;99.90
11617;DHT22;5864;52.998;9.068;2023-02-13T15:21:56;9.20;99.90
11617;DHT22;5864;52.998;9.068;2023-02-13T15:24:23;9.20;99.90
11617;DHT22;5864;52.998;9.068;2023-02-13T15:27:01;9.10;99.90
11617;DHT22;5864;52.998;9.068;2023-02-13T15:29:31;9.10;99.90
11617;DHT22;5864;52.998;9.068;2023-02-13T15:31:59;9.10;99.90
11617;DHT22;5864;52.998;9.068;2023-02-13T15:34:29;9.20;99.90
11617;DHT22;5864;52.998;9.068;2023-02-13T15:37:00;9.10;99.90
11617;DHT22;5864;52.998;9.068;2023-02-13T15:39:29;9.20;99.90
11617;DHT22;5864;52.998;9.068;2023-02-13T15:41:58;9.10;99.90
11617;DHT22;5864;52.998;9.068;2023-02-13T15:44:28;9.10;99.90
11617;DHT22;5864;52.998;9.068;2023-02-13T15:47:01;8.90;99.90
11617;DHT22;5864;52.998;9.068;2023-02-13T15:49:36;8.80;99.90
11617;DHT22;5864;52.998;9.068;2023-02-13T15:52:08;8.70;99.90
11617;DHT22;5864;52.998;9.068;2023-02-13T15:54:47;8.60;99.90
11617;DHT22;5864;52.998;9.068;2023-02-13T15:57:15;8.60;99.90
11617;DHT22;5864;52.998;9.068;2023-02-13T15:59:44;8.60;99.90
11617;DHT22;5864;52.998;9.068;2023-02-13T16:02:15;8.70;99.90
11617;DHT22;5864;52.998;9.068;2023-02-13T16:04:46;8.80;99.90
11617;DHT22;5864;52.998;9.068;2023-02-13T16:07:15;8.90;99.90
11617;DHT22;5864;52.998;9.068;2023-02-13T16:09:43;8.90;99.90
11617;DHT22;5864;52.998;9.068;2023-02-13T16:12:18;8.90;99.90
11617;DHT22;5864;52.998;9.068;2023-02-13T16:14:50;9.00;99.90
11617;DHT22;5864;52.998;9.068;2023-02-13T16:17:25;8.90;99.90
11617;DHT22;5864;52.998;9.068;2023-02-13T16:19:58;9.00;99.90
11617;DHT22;5864;52.998;9.068;2023-02-13T16:22:31;9.00;99.90
11617;DHT22;5864;52.998;9.068;2023-02-13T16:25:09;8.90;99.90
11617;DHT22;5864;52.998;9.068;2023-02-13T16:27:41;8.90;99.90
11617;DHT22;5864;52.998;9.068;2023-02-13T16:30:24;8.90;99.90
11617;DHT22;5864;52.998;9.068;2023-02-13T16:33:18;8.80;99.90
11617;DHT22;5864;52.998;9.068;2023-02-13T16:35:49;8.60;99.90
11617;DHT22;5864;52.998;9.068;2023-02-13T16:38:26;8.60;99.90
11617;DHT22;5864;52.998;9.068;2023-02-13T16:40:55;8.50;99.90
11617;DHT22;5864;52.998;9.068;2023-02-13T16:43:42;8.60;99.90
11617;DHT22;5864;52.998;9.068;2023-02-13T16:46:31;8.60;99.90
11617;DHT22;5864;52.998;9.068;2023-02-13T16:49:26;8.60;99.90
11617;DHT22;5864;52.998;9.068;2023-02-13T16:51:59;8.60;99.90
11617;DHT22;5864;52.998;9.068;2023-02-13T16:54:33;8.60;99.90
11617;DHT22;5864;52.998;9.068;2023-02-13T16:57:13;8.50;99.90
11617;DHT22;5864;52.998;9.068;2023-02-13T17:00:03;8.60;99.90
11617;DHT22;5864;52.998;9.068;2023-02-13T17:02:33;8.50;99.90
11617;DHT22;5864;52.998;9.068;2023-02-13T17:05:19;8.60;99.90
11617;DHT22;5864;52.998;9.068;2023-02-13T17:07:49;8.60;99.90